Airfield :
LOGIN :

Register | Disclaimer

   EN    FR    IT 

 










Legend :    VFR   Marginal VFR   IFR   Intensive IFR   Very Intensive IFR
Visi :
Ceiling :
>= 8 km
>= 3000ft
5 to 8 km
1000 to 3000 ft
1500m to 5 km
500 to 1000 ft
800 to 1500m
200 to 500 ft
< 800m
< 200 ft
Symbols :   Thunderstorms  Fog  Heavy snow  Heavy precipitations  Wind > 20 kt
SIGMETs :     Misc.  Thunderstorms  Icing  Turbulence  Mountain Waves  Volcanic Ashes






- Airport Elevation : 2077 ft
- IATA code : FMM


EDJA - Memmingen

CURRENT METAR :
  • 250250Z AUTO 24006KT 9999 // FEW027/// OVC069/// M05/M09 Q0998

EXPIRED METARs :
  • 250220Z AUTO VRB02KT 9999 // OVC063/// M06/M08 Q0998
  • 250150Z AUTO VRB01KT 9999 // FEW062/// BKN071/// OVC082/// M07/M08 Q0998
  • 250120Z AUTO 00000KT 9999 // BKN083/// BKN100/// M07/M09 Q0998
  • 250050Z AUTO VRB02KT 9999 // FEW062/// BKN074/// OVC092/// M07/M08 Q0998
  • 250020Z AUTO VRB02KT 9999 // BKN065/// BKN081/// OVC110/// M07/M08 Q0999

Expired Forecast.



MET'MAP, your aeronautical weather chart ! - Copyright ORBIFLY December 2007 - Disclaimer

ORBIFLY MET'MAP TEAM :

Programming & Development : Alexandra Zaïnal
Concept & original design : Baudouin d'Aumeries
Assistance for programming : Marc-Olivier Méhu
Technical & hardware support : Manuel Goepfert

Contact : metmap@orbifly.com




SOURCES & CREDITS :

   NOAA